Middletown, Kentucky
Current Conditions -  °F | °C
As of 2:53 AM on Wednesday 26 Nov 2014 (Local Time) from KLOU Reporting Station
Clear Clear  
Wind Chill: 30°   Ceiling: Unl
Heat Index: 30°   Visibility: 8mi
Dew Point: 25°   Wind: 3mph
Humidity: 82%   Direction: 340°NNW
Pressure: 30.14"   Gusts: NA
Location:  38.2432°N, 85.5291°W
Report Text: KLOU 260753Z AUTO 34003KT 8SM CLR M01/M04 A3014 RMK AO2 SLP211 T10111039
Loading
Personal Weather Stations






























Interactive Weather Map New forecast layout! Learn more

10-Day Weather Forecast

Advertisements
Track Severe Weather on mobile